Time;durP1;ratioP1;P1;durP2;ratioP2;P2;SDS_P1;SDS_P2;PMS_P1;PMS_P2;Temp;Humidity;BMP_temperature;BMP_pressure;BME280_temperature;BME280_humidity;BME280_pressure;Samples;Min_cycle;Max_cycle;Signal;HPM_P1;HPM_P2
2023/06/16 00:03:04;;;;;;;13.70;12.60;;;;;;;12.51;69.29;100463.09;221819;1232;61575;-75
2023/06/16 00:07:58;;;;;;;13.70;12.50;;;;;;;12.47;69.54;100461.34;221822;1235;61704;-74
2023/06/16 00:12:50;;;;;;;12.90;11.60;;;;;;;12.44;69.52;100459.92;221864;1232;66207;-74
2023/06/16 00:17:46;;;;;;;12.10;11.10;;;;;;;12.37;69.60;100456.41;221659;1231;61294;-74
2023/06/16 00:22:39;;;;;;;13.10;11.80;;;;;;;12.31;69.60;100458.64;221774;1236;74479;-74
2023/06/16 00:27:30;;;;;;;12.60;11.30;;;;;;;12.21;69.59;100453.55;221858;1235;61261;-74
2023/06/16 00:32:26;;;;;;;17.30;12.10;;;;;;;12.14;69.73;100452.80;222023;1232;61262;-74
2023/06/16 00:37:18;;;;;;;14.10;12.60;;;;;;;11.98;69.69;100447.84;221809;1232;61229;-74
2023/06/16 00:42:09;;;;;;;15.20;11.10;;;;;;;11.96;70.12;100445.55;221866;1232;61271;-74
2023/06/16 00:47:01;;;;;;;13.20;11.90;;;;;;;11.95;70.16;100446.59;221800;1232;65799;-74
2023/06/16 00:51:53;;;;;;;13.40;12.20;;;;;;;11.94;70.41;100444.67;221809;1232;61433;-74
2023/06/16 00:56:45;;;;;;;12.70;11.40;;;;;;;11.93;70.52;100446.41;221752;1232;61360;-74
2023/06/16 01:01:38;;;;;;;13.20;12.10;;;;;;;11.96;70.59;100447.98;221767;1237;61319;-74
2023/06/16 01:06:41;;;;;;;13.30;12.00;;;;;;;11.92;70.36;100442.74;221710;1232;76295;-74
2023/06/16 01:11:33;;;;;;;12.80;11.70;;;;;;;11.83;70.35;100439.02;221710;1235;73444;-74
2023/06/16 01:16:31;;;;;;;13.50;12.20;;;;;;;11.77;70.42;100439.49;221789;1235;61213;-74
2023/06/16 01:21:37;;;;;;;12.80;11.70;;;;;;;11.73;70.69;100437.21;221880;1232;67251;-74
2023/06/16 01:26:34;;;;;;;13.10;11.70;;;;;;;11.65;70.41;100432.98;221792;1232;61415;-74
2023/06/16 01:31:28;;;;;;;13.00;11.80;;;;;;;11.52;70.70;100438.41;221737;1232;74602;-74
2023/06/16 01:36:22;;;;;;;14.40;13.00;;;;;;;11.49;71.04;100445.34;221767;1232;71028;-74
2023/06/16 01:41:18;;;;;;;13.70;12.40;;;;;;;11.49;71.28;100442.38;221691;1231;61254;-74
2023/06/16 01:46:11;;;;;;;14.50;13.00;;;;;;;11.44;71.20;100442.16;221806;1232;65798;-74
2023/06/16 01:51:03;;;;;;;13.00;11.90;;;;;;;11.38;71.21;100436.05;221810;1232;61296;-75
2023/06/16 01:55:55;;;;;;;14.10;12.70;;;;;;;11.38;71.30;100432.40;221782;1232;61711;-74
2023/06/16 02:00:54;;;;;;;16.60;12.30;;;;;;;11.35;71.30;100438.10;221799;1232;61332;-74
2023/06/16 02:05:52;;;;;;;13.50;12.20;;;;;;;11.29;71.25;100441.33;221714;1235;73152;-74
2023/06/16 02:10:45;;;;;;;13.20;11.90;;;;;;;11.24;71.17;100434.34;221840;1232;71394;-74
2023/06/16 02:15:37;;;;;;;13.70;12.40;;;;;;;11.18;71.27;100434.45;221742;1232;61238;-74
2023/06/16 02:20:28;;;;;;;15.30;13.00;;;;;;;11.12;71.39;100432.15;221828;1232;61299;-74
2023/06/16 02:25:20;;;;;;;13.10;11.90;;;;;;;11.07;71.32;100433.14;221703;1232;61315;-74
2023/06/16 02:30:12;;;;;;;14.80;13.40;;;;;;;10.92;71.42;100436.61;221614;1237;61369;-74
2023/06/16 02:35:06;;;;;;;13.80;12.50;;;;;;;10.92;71.70;100441.83;221662;1232;61305;-74
2023/06/16 02:39:58;;;;;;;13.20;11.80;;;;;;;10.95;71.75;100440.12;221816;1231;75447;-74
2023/06/16 02:44:50;;;;;;;14.00;12.40;;;;;;;10.97;71.94;100439.61;221809;1232;61268;-74
2023/06/16 02:49:42;;;;;;;14.30;13.00;;;;;;;10.97;71.95;100439.10;221885;1231;61263;-75
2023/06/16 02:54:34;;;;;;;13.50;12.20;;;;;;;10.93;71.93;100435.76;221486;1235;289484;-74
2023/06/16 02:59:26;;;;;;;13.30;11.40;;;;;;;10.93;71.94;100438.18;221666;1231;61264;-74
2023/06/16 03:04:18;;;;;;;16.30;13.50;;;;;;;10.88;71.95;100438.30;221733;1232;61267;-75
2023/06/16 03:09:21;;;;;;;12.10;11.10;;;;;;;10.86;71.92;100433.09;221737;1231;61536;-74
2023/06/16 03:14:13;;;;;;;14.70;13.30;;;;;;;10.89;72.09;100437.28;221777;1235;65699;-74
2023/06/16 03:19:05;;;;;;;13.80;12.40;;;;;;;10.94;71.93;100438.55;221878;1235;61725;-74
2023/06/16 03:23:57;;;;;;;13.40;12.00;;;;;;;11.00;71.92;100443.81;221896;1235;61451;-74
2023/06/16 03:28:49;;;;;;;13.60;12.20;;;;;;;11.06;71.66;100446.84;221708;1232;61335;-74
2023/06/16 03:33:42;;;;;;;13.90;12.70;;;;;;;11.17;71.74;100447.63;221869;1232;74260;-74
2023/06/16 03:38:34;;;;;;;13.10;11.80;;;;;;;11.33;71.78;100450.91;221827;1232;72737;-74
2023/06/16 03:43:26;;;;;;;12.50;11.30;;;;;;;11.63;71.60;100449.27;221897;1232;61300;-74
2023/06/16 03:48:19;;;;;;;12.50;11.30;;;;;;;11.89;71.22;100445.50;221824;1231;61235;-74
2023/06/16 03:53:15;;;;;;;14.00;12.70;;;;;;;11.78;71.25;100437.06;221864;1231;61235;-74
2023/06/16 03:58:10;;;;;;;14.60;13.10;;;;;;;11.72;71.55;100438.94;221859;1232;74404;-74
2023/06/16 04:03:02;;;;;;;13.90;12.40;;;;;;;11.72;71.56;100442.59;221888;1235;61367;-74
2023/06/16 04:07:54;;;;;;;13.40;12.20;;;;;;;11.62;71.65;100447.88;221902;1232;61254;-74
2023/06/16 04:12:46;;;;;;;14.00;12.80;;;;;;;11.52;71.76;100448.13;221789;1232;61309;-74
2023/06/16 04:17:38;;;;;;;13.90;12.70;;;;;;;11.51;72.19;100454.71;221948;1231;61236;-74
2023/06/16 04:22:30;;;;;;;14.20;13.00;;;;;;;11.52;72.29;100450.73;221739;1231;67184;-74
2023/06/16 04:27:23;;;;;;;13.70;12.50;;;;;;;11.58;72.84;100446.98;221912;1231;61373;-74
2023/06/16 04:32:15;;;;;;;16.00;13.70;;;;;;;11.62;72.90;100449.27;221879;1231;61226;-74
2023/06/16 04:37:11;;;;;;;13.90;12.70;;;;;;;11.66;73.21;100444.60;221977;1232;61258;-74
2023/06/16 04:42:04;;;;;;;14.70;13.40;;;;;;;11.74;73.40;100437.39;221969;1231;61255;-74
2023/06/16 04:46:56;;;;;;;15.50;13.90;;;;;;;11.85;73.76;100438.16;221741;1232;61214;-74
2023/06/16 04:51:48;;;;;;;16.80;14.80;;;;;;;11.98;73.86;100444.18;221893;1231;61348;-74
2023/06/16 04:56:40;;;;;;;19.20;17.30;;;;;;;12.13;73.99;100445.67;221787;1231;61356;-74
2023/06/16 05:01:31;;;;;;;19.00;17.00;;;;;;;12.34;74.57;100442.84;221770;1231;61188;-74
2023/06/16 05:06:24;;;;;;;21.70;19.50;;;;;;;12.54;74.81;100438.59;221740;1231;61358;-74
2023/06/16 05:11:16;;;;;;;24.80;22.50;;;;;;;12.74;75.13;100439.38;221742;1232;61280;-74
2023/06/16 05:16:07;;;;;;;26.40;24.00;;;;;;;12.97;75.45;100439.45;221819;1231;61255;-74
2023/06/16 05:21:00;;;;;;;25.90;23.50;;;;;;;13.21;75.71;100436.02;221731;1231;74351;-74
2023/06/16 05:25:53;;;;;;;25.70;23.20;;;;;;;13.52;75.63;100433.99;221865;1235;61322;-74
2023/06/16 05:30:45;;;;;;;26.60;24.20;;;;;;;13.84;75.58;100435.20;221930;1231;61328;-74
2023/06/16 05:35:38;;;;;;;23.80;21.80;;;;;;;14.05;75.38;100439.19;221769;1231;61343;-74
2023/06/16 05:40:29;;;;;;;22.80;20.70;;;;;;;14.42;75.08;100434.91;221730;1231;67200;-74
2023/06/16 05:45:21;;;;;;;27.70;21.80;;;;;;;14.80;74.80;100435.66;221900;1231;61255;-74
2023/06/16 05:50:16;;;;;;;22.50;20.30;;;;;;;15.09;74.61;100433.05;221793;1232;61227;-75
2023/06/16 05:55:08;;;;;;;25.20;19.50;;;;;;;15.45;74.19;100429.66;221765;1231;61351;-74
2023/06/16 06:00:08;;;;;;;26.10;21.00;;;;;;;15.58;74.25;100423.61;221834;1232;61222;-74
2023/06/16 06:05:05;;;;;;;30.00;22.20;;;;;;;15.65;74.30;100424.45;221974;1231;65693;-74
2023/06/16 06:09:57;;;;;;;24.10;21.90;;;;;;;15.73;74.28;100430.66;221852;1231;61249;-75
2023/06/16 06:14:49;;;;;;;22.90;20.80;;;;;;;15.87;73.87;100428.48;221780;1231;61293;-74
2023/06/16 06:19:41;;;;;;;26.40;22.00;;;;;;;16.09;73.40;100435.08;221573;1231;61334;-74
2023/06/16 06:24:33;;;;;;;22.10;19.70;;;;;;;16.33;73.32;100435.34;221919;1231;61296;-74
2023/06/16 06:29:26;;;;;;;21.40;19.30;;;;;;;16.72;72.47;100433.67;221745;1235;61235;-74
2023/06/16 06:34:17;;;;;;;19.80;17.90;;;;;;;17.28;72.25;100430.62;221889;1231;61328;-74
2023/06/16 06:39:09;;;;;;;24.10;19.10;;;;;;;17.84;71.17;100425.17;221713;1231;72881;-74
2023/06/16 06:44:01;;;;;;;20.80;18.90;;;;;;;18.26;70.21;100429.49;221737;1231;61216;-74
2023/06/16 06:49:25;;;;;;;13.40;12.20;;;;;;;18.62;69.08;100431.42;221695;1231;66866;-74
2023/06/16 06:54:16;;;;;;;15.10;13.50;;;;;;;19.01;67.80;100429.03;221861;1231;61258;-75
2023/06/16 06:59:08;;;;;;;15.20;13.70;;;;;;;19.52;66.69;100431.73;221886;1231;61227;-75
2023/06/16 07:03:59;;;;;;;10.90;9.80;;;;;;;19.71;66.05;100433.35;221800;1231;61255;-75
2023/06/16 07:08:51;;;;;;;10.40;9.50;;;;;;;19.81;64.31;100434.88;221850;1231;61266;-74
2023/06/16 07:13:43;;;;;;;9.00;8.20;;;;;;;20.10;63.49;100431.13;221917;1231;61248;-74
2023/06/16 07:18:34;;;;;;;10.00;9.00;;;;;;;20.48;63.07;100431.67;221894;1232;75406;-74
2023/06/16 07:23:26;;;;;;;9.90;8.80;;;;;;;21.04;61.61;100431.80;221855;1235;61303;-75
2023/06/16 07:28:18;;;;;;;9.60;8.60;;;;;;;21.59;59.95;100425.48;221904;1231;61326;-75
2023/06/16 07:33:10;;;;;;;8.90;8.20;;;;;;;22.16;59.20;100429.03;221854;1231;73341;-74
2023/06/16 07:38:01;;;;;;;7.50;6.80;;;;;;;23.71;57.18;100428.63;221928;1235;61252;-75
2023/06/16 07:42:53;;;;;;;7.60;6.90;;;;;;;25.39;54.43;100425.73;221976;1231;61263;-75
2023/06/16 07:47:46;;;;;;;6.80;6.00;;;;;;;27.05;52.23;100419.70;221906;1231;61247;-75
2023/06/16 07:52:38;;;;;;;4.90;4.40;;;;;;;28.77;48.69;100420.19;221868;1231;66859;-75
2023/06/16 07:57:29;;;;;;;5.30;4.80;;;;;;;29.07;46.99;100421.65;221676;1231;61207;-75
2023/06/16 08:02:23;;;;;;;5.60;5.00;;;;;;;29.14;45.89;100418.94;221943;1235;61370;-75
2023/06/16 08:07:15;;;;;;;5.20;4.60;;;;;;;28.95;45.42;100419.77;221883;1232;61200;-75
2023/06/16 08:12:09;;;;;;;5.10;4.70;;;;;;;28.20;45.38;100419.05;221971;1231;61322;-75
2023/06/16 08:17:01;;;;;;;7.00;6.40;;;;;;;28.30;44.07;100423.66;221852;1235;72321;-75
2023/06/16 08:21:52;;;;;;;6.50;5.90;;;;;;;29.45;42.60;100414.70;221838;1231;61217;-75
2023/06/16 08:26:44;;;;;;;5.80;5.20;;;;;;;30.08;41.78;100418.91;221913;1231;61229;-75
2023/06/16 08:31:36;;;;;;;6.20;5.70;;;;;;;30.37;40.51;100420.96;222006;1231;61438;-75
2023/06/16 08:36:28;;;;;;;6.30;5.80;;;;;;;30.15;40.30;100419.27;221901;1231;61324;-75
2023/06/16 08:41:22;;;;;;;6.20;5.60;;;;;;;29.60;40.56;100414.61;221910;1232;61228;-75
2023/06/16 08:46:13;;;;;;;5.80;5.30;;;;;;;30.04;39.72;100410.92;221882;1231;61233;-75
2023/06/16 08:51:09;;;;;;;5.90;5.40;;;;;;;30.00;39.13;100412.44;221903;1235;61333;-75
2023/06/16 08:56:02;;;;;;;6.30;5.80;;;;;;;30.58;38.44;100407.67;221663;1235;75271;-75
2023/06/16 09:00:54;;;;;;;6.30;5.80;;;;;;;30.84;37.67;100408.67;221874;1231;73061;-75
2023/06/16 09:05:46;;;;;;;6.20;5.20;;;;;;;30.49;37.64;100404.77;221909;1232;61217;-74
2023/06/16 09:10:37;;;;;;;6.00;5.50;;;;;;;29.65;37.61;100408.23;221934;1231;61315;-75
2023/06/16 09:15:29;;;;;;;6.90;5.10;;;;;;;28.65;38.10;100405.98;221834;1231;61763;-75
2023/06/16 09:20:22;;;;;;;5.80;5.40;;;;;;;28.03;38.82;100403.19;221875;1231;61216;-75
2023/06/16 09:25:17;;;;;;;5.60;5.20;;;;;;;27.76;38.88;100395.02;221652;1231;61200;-75
2023/06/16 09:30:14;;;;;;;5.10;4.70;;;;;;;28.69;37.59;100395.90;221746;1235;75523;-75
2023/06/16 09:35:16;;;;;;;5.50;5.10;;;;;;;30.20;36.45;100384.41;221943;1235;70580;-75
2023/06/16 09:40:09;;;;;;;6.10;5.60;;;;;;;30.95;35.70;100379.95;221885;1235;61340;-75
2023/06/16 09:45:01;;;;;;;6.10;5.40;;;;;;;32.40;34.25;100377.33;221978;1231;66940;-75
2023/06/16 09:49:53;;;;;;;6.00;5.40;;;;;;;33.44;33.68;100370.86;221877;1231;61212;-75
2023/06/16 09:54:45;;;;;;;6.40;5.10;;;;;;;33.55;33.73;100371.52;221920;1231;61092;-75
2023/06/16 09:59:36;;;;;;;5.70;5.30;;;;;;;32.26;33.47;100374.44;221861;1235;61264;-75
2023/06/16 10:04:31;;;;;;;5.50;5.00;;;;;;;30.84;34.86;100368.02;221941;1231;61312;-74
2023/06/16 10:09:32;;;;;;;5.60;5.10;;;;;;;29.30;36.24;100369.48;221876;1231;74752;-75
2023/06/16 10:14:28;;;;;;;6.10;5.60;;;;;;;28.40;36.54;100368.85;221890;1231;61220;-74
2023/06/16 10:19:21;;;;;;;;;;;;;;;28.83;36.35;100364.62;221886;1231;68088;-75
2023/06/16 10:24:15;;;;;;;5.40;5.00;;;;;;;30.58;35.54;100361.18;221917;1231;61367;-75
2023/06/16 10:29:07;;;;;;;6.00;5.20;;;;;;;30.98;34.46;100348.98;221874;1231;75195;-75
2023/06/16 10:33:59;;;;;;;8.90;6.10;;;;;;;29.88;35.80;100350.56;221932;1231;61235;-75
2023/06/16 10:39:07;;;;;;;5.90;5.50;;;;;;;30.17;35.06;100347.33;221848;1231;61431;-75
2023/06/16 10:44:30;;;;;;;6.50;5.80;;;;;;;30.90;34.96;100344.92;221797;1231;66706;-74
2023/06/16 10:49:27;;;;;;;6.40;5.40;;;;;;;30.03;34.99;100346.63;221868;1231;61125;-74
2023/06/16 10:54:33;;;;;;;6.10;5.50;;;;;;;29.09;35.47;100340.73;221882;1231;73310;-74
2023/06/16 10:59:25;;;;;;;7.00;5.40;;;;;;;28.13;36.50;100348.21;221867;1235;72445;-74
2023/06/16 11:04:17;;;;;;;4.80;4.40;;;;;;;27.42;36.92;100345.06;221836;1231;61333;-75
2023/06/16 11:09:09;;;;;;;6.50;5.90;;;;;;;26.91;38.01;100342.96;221744;1234;61247;-75
2023/06/16 11:14:03;;;;;;;6.60;6.10;;;;;;;26.46;38.06;100342.13;221822;1235;61271;-74
2023/06/16 11:18:57;;;;;;;5.70;5.30;;;;;;;26.47;39.57;100337.08;221868;1231;61360;-74
2023/06/16 11:23:48;;;;;;;7.50;6.80;;;;;;;26.44;39.17;100333.70;221883;1231;61316;-74
2023/06/16 11:28:41;;;;;;;7.60;5.70;;;;;;;26.12;38.98;100332.05;221903;1231;61345;-75
2023/06/16 11:33:33;;;;;;;7.30;6.00;;;;;;;25.83;39.40;100327.35;221750;1231;61418;-74
2023/06/16 11:38:25;;;;;;;7.10;5.70;;;;;;;25.85;39.29;100321.59;221900;1235;61264;-75
2023/06/16 11:43:18;;;;;;;6.20;5.70;;;;;;;25.75;39.76;100317.48;221879;1231;72854;-74
2023/06/16 11:48:10;;;;;;;5.50;5.10;;;;;;;25.69;39.97;100318.29;221880;1231;61260;-74
2023/06/16 11:53:02;;;;;;;5.80;5.30;;;;;;;25.68;39.48;100315.16;221834;1231;61345;-74
2023/06/16 11:57:54;;;;;;;10.00;7.50;;;;;;;25.85;39.41;100316.55;221838;1235;61444;-74
2023/06/16 12:02:48;;;;;;;7.30;4.80;;;;;;;25.74;39.32;100310.22;221783;1231;61545;-75
2023/06/16 12:07:41;;;;;;;6.80;6.20;;;;;;;25.62;38.95;100309.11;221844;1231;61897;-74
2023/06/16 12:12:33;;;;;;;6.40;5.90;;;;;;;25.89;39.90;100307.70;221727;1231;74519;-74
2023/06/16 12:17:25;;;;;;;7.40;6.30;;;;;;;26.18;39.88;100305.45;221835;1231;61347;-75
2023/06/16 12:22:17;;;;;;;6.20;5.60;;;;;;;26.26;39.13;100308.02;221852;1231;59755;-74
2023/06/16 12:27:09;;;;;;;9.50;7.30;;;;;;;26.52;39.27;100302.48;221904;1231;61349;-74
2023/06/16 12:32:04;;;;;;;7.00;6.40;;;;;;;26.76;40.30;100304.23;221589;1231;61263;-74
2023/06/16 12:37:06;;;;;;;7.00;6.30;;;;;;;26.81;40.10;100300.16;221823;1231;68356;-75
2023/06/16 12:42:01;;;;;;;6.30;5.80;;;;;;;27.05;39.64;100296.99;221834;1235;61285;-75
2023/06/16 12:46:52;;;;;;;7.10;5.90;;;;;;;27.36;38.85;100296.63;221711;1231;74983;-74
2023/06/16 12:51:44;;;;;;;6.60;6.00;;;;;;;27.35;38.53;100295.24;221828;1232;61130;-75
2023/06/16 12:56:36;;;;;;;6.50;5.90;;;;;;;27.40;38.59;100289.98;221874;1231;61267;-74
2023/06/16 13:01:27;;;;;;;6.40;5.90;;;;;;;27.44;38.76;100283.39;221810;1231;73502;-74
2023/06/16 13:06:19;;;;;;;7.60;6.10;;;;;;;27.16;38.97;100278.08;221848;1231;61233;-75
2023/06/16 13:11:11;;;;;;;7.00;6.40;;;;;;;26.73;38.94;100280.18;221900;1235;61355;-75
2023/06/16 13:16:03;;;;;;;7.90;6.70;;;;;;;26.51;39.18;100281.07;221799;1231;61226;-75
2023/06/16 13:20:55;;;;;;;6.10;5.60;;;;;;;26.29;39.53;100284.25;221869;1231;61207;-74
2023/06/16 13:25:46;;;;;;;6.60;6.10;;;;;;;26.01;39.30;100276.89;221806;1231;61357;-75
2023/06/16 13:30:38;;;;;;;6.80;6.20;;;;;;;25.71;39.28;100272.41;221880;1231;61280;-75
2023/06/16 13:35:30;;;;;;;6.70;6.20;;;;;;;25.56;39.90;100269.27;221733;1231;61206;-74
2023/06/16 13:40:21;;;;;;;6.50;6.00;;;;;;;25.40;40.93;100272.99;221832;1231;61357;-74
2023/06/16 13:45:14;;;;;;;6.50;6.00;;;;;;;25.26;41.25;100271.19;221815;1235;61246;-75
2023/06/16 13:50:06;;;;;;;5.90;5.50;;;;;;;25.21;40.95;100271.96;221778;1235;74344;-74
2023/06/16 13:54:58;;;;;;;6.00;5.50;;;;;;;25.19;41.45;100268.90;221791;1235;61584;-75
2023/06/16 13:59:50;;;;;;;6.00;5.50;;;;;;;25.18;41.44;100265.57;221835;1235;61267;-74
2023/06/16 14:04:41;;;;;;;8.20;5.70;;;;;;;25.19;41.01;100260.00;221800;1231;71256;-74
2023/06/16 14:09:33;;;;;;;5.80;5.40;;;;;;;25.24;40.67;100258.19;221705;1231;61331;-74
2023/06/16 14:14:24;;;;;;;5.40;5.00;;;;;;;25.18;40.92;100251.89;221875;1231;61250;-75
2023/06/16 14:19:16;;;;;;;5.80;5.40;;;;;;;25.18;40.66;100252.81;221833;1232;61292;-74
2023/06/16 14:24:07;;;;;;;5.70;5.20;;;;;;;25.11;40.56;100246.75;221786;1233;61252;-75
2023/06/16 14:28:59;;;;;;;6.20;5.10;;;;;;;25.03;41.16;100244.47;221836;1232;61334;-74
2023/06/16 14:33:53;;;;;;;5.40;5.00;;;;;;;25.03;39.77;100238.27;221819;1236;65747;-75
2023/06/16 14:38:44;;;;;;;5.90;5.40;;;;;;;25.01;40.18;100231.81;221800;1231;61248;-75
2023/06/16 14:43:36;;;;;;;5.10;4.70;;;;;;;25.04;39.62;100223.85;221836;1231;61292;-74
2023/06/16 14:48:28;;;;;;;6.30;4.60;;;;;;;25.05;39.51;100221.54;221824;1231;61330;-74
2023/06/16 14:53:20;;;;;;;5.20;4.70;;;;;;;25.04;39.88;100213.94;221663;1231;183859;-75
2023/06/16 14:58:11;;;;;;;6.10;5.50;;;;;;;25.08;39.69;100207.73;221802;1231;61219;-74
2023/06/16 15:03:03;;;;;;;5.30;4.90;;;;;;;25.00;40.04;100205.84;221876;1231;61264;-74
2023/06/16 15:07:54;;;;;;;5.60;5.10;;;;;;;24.86;39.42;100204.79;221762;1231;73409;-75
2023/06/16 15:12:46;;;;;;;6.20;5.60;;;;;;;24.75;40.38;100200.90;221833;1231;61254;-74
2023/06/16 15:17:38;;;;;;;5.80;5.30;;;;;;;24.57;40.73;100201.25;221892;1231;61252;-75
2023/06/16 15:22:30;;;;;;;6.90;6.30;;;;;;;24.45;40.80;100194.91;221882;1235;61263;-75
2023/06/16 15:27:21;;;;;;;7.00;6.40;;;;;;;24.33;42.16;100194.04;221842;1232;61344;-75
2023/06/16 15:32:14;;;;;;;7.00;6.20;;;;;;;24.20;42.07;100189.01;221744;1231;61242;-75
2023/06/16 15:37:06;;;;;;;7.00;6.40;;;;;;;24.10;42.87;100190.18;221823;1231;68356;-75
2023/06/16 15:41:57;;;;;;;7.70;7.00;;;;;;;23.93;42.93;100186.72;221870;1231;61306;-75
2023/06/16 15:46:49;;;;;;;7.80;6.20;;;;;;;23.80;43.31;100186.48;221889;1231;61332;-75
2023/06/16 15:51:41;;;;;;;7.10;6.40;;;;;;;23.69;44.30;100181.30;221717;1231;61212;-74
2023/06/16 15:56:32;;;;;;;7.60;6.90;;;;;;;23.58;44.70;100181.23;221825;1231;61241;-75
2023/06/16 16:01:24;;;;;;;7.10;6.50;;;;;;;23.51;45.27;100181.77;221817;1236;61220;-75
2023/06/16 16:06:16;;;;;;;8.10;7.40;;;;;;;23.46;46.14;100178.95;221794;1231;74469;-75
2023/06/16 16:11:09;;;;;;;9.40;8.40;;;;;;;23.43;46.60;100177.88;221792;1231;61276;-75
2023/06/16 16:16:01;;;;;;;7.30;6.60;;;;;;;23.39;46.67;100176.60;221706;1231;61226;-74
2023/06/16 16:20:53;;;;;;;7.70;7.00;;;;;;;23.32;46.34;100174.14;221770;1231;61248;-75
2023/06/16 16:25:45;;;;;;;8.60;7.80;;;;;;;23.19;46.57;100175.73;221835;1231;61312;-74
2023/06/16 16:30:37;;;;;;;9.80;8.00;;;;;;;23.06;47.15;100169.75;221789;1235;66751;-74
2023/06/16 16:35:28;;;;;;;7.70;6.90;;;;;;;22.93;47.96;100170.67;221780;1235;61369;-74
2023/06/16 16:40:20;;;;;;;8.10;7.40;;;;;;;22.80;48.75;100171.53;221763;1231;61255;-75
2023/06/16 16:45:12;;;;;;;8.30;7.60;;;;;;;22.70;49.00;100174.65;221868;1236;61232;-74
2023/06/16 16:50:03;;;;;;;9.60;7.40;;;;;;;22.62;48.80;100177.79;221852;1235;61328;-74
2023/06/16 16:54:56;;;;;;;8.70;8.00;;;;;;;22.54;49.32;100181.85;221826;1232;61376;-74
2023/06/16 16:59:47;;;;;;;9.90;8.90;;;;;;;22.39;50.02;100185.59;221871;1237;61864;-75
2023/06/16 17:04:39;;;;;;;8.90;8.20;;;;;;;22.21;50.53;100182.09;221815;1236;73199;-74
2023/06/16 17:09:31;;;;;;;8.80;8.00;;;;;;;22.02;51.03;100185.45;221895;1231;61273;-75
2023/06/16 17:14:24;;;;;;;10.40;9.40;;;;;;;21.87;51.62;100187.45;221845;1237;61225;-75
2023/06/16 17:19:15;;;;;;;10.60;9.20;;;;;;;21.73;51.91;100188.86;221861;1231;61263;-74
2023/06/16 17:24:07;;;;;;;9.90;9.10;;;;;;;21.60;52.56;100190.22;221778;1231;61261;-75
2023/06/16 17:28:58;;;;;;;10.40;9.40;;;;;;;21.51;52.74;100198.13;221742;1231;61328;-75
2023/06/16 17:33:51;;;;;;;10.20;9.20;;;;;;;21.43;52.63;100196.09;221786;1232;65900;-75
2023/06/16 17:38:43;;;;;;;10.80;9.40;;;;;;;21.38;53.12;100199.61;221822;1232;61325;-74
2023/06/16 17:43:34;;;;;;;10.50;9.70;;;;;;;21.31;53.87;100200.91;221837;1231;61338;-75
2023/06/16 17:48:26;;;;;;;11.10;10.20;;;;;;;21.19;53.63;100199.95;221842;1236;61263;-74
2023/06/16 17:53:18;;;;;;;10.40;9.50;;;;;;;21.10;54.26;100198.14;221855;1231;74378;-75
2023/06/16 17:58:09;;;;;;;10.60;9.70;;;;;;;21.02;54.61;100198.60;221753;1231;61213;-74
2023/06/16 18:03:01;;;;;;;10.50;9.40;;;;;;;20.93;55.23;100204.01;221920;1231;61678;-74
2023/06/16 18:07:53;;;;;;;11.50;10.40;;;;;;;20.86;55.59;100202.14;221780;1236;73451;-74
2023/06/16 18:12:44;;;;;;;12.10;11.00;;;;;;;20.77;55.17;100202.09;221848;1234;61416;-75
2023/06/16 18:17:36;;;;;;;11.50;10.50;;;;;;;20.68;55.31;100204.30;221897;1232;61338;-74
2023/06/16 18:22:28;;;;;;;11.80;10.70;;;;;;;20.59;55.13;100202.13;221878;1235;61312;-74
2023/06/16 18:27:19;;;;;;;11.90;10.80;;;;;;;20.46;55.38;100198.98;221801;1232;61322;-75
2023/06/16 18:32:13;;;;;;;11.50;10.50;;;;;;;20.38;56.11;100196.96;221887;1232;61268;-74
2023/06/16 18:37:05;;;;;;;11.90;10.90;;;;;;;20.30;56.39;100197.40;221670;1237;66936;-74
2023/06/16 18:41:56;;;;;;;13.00;11.80;;;;;;;20.19;56.59;100198.27;221725;1232;61316;-74
2023/06/16 18:46:48;;;;;;;13.40;11.80;;;;;;;20.11;57.18;100197.80;221785;1231;61274;-75
2023/06/16 18:51:41;;;;;;;13.10;12.00;;;;;;;20.05;57.71;100203.10;221827;1232;61335;-75
2023/06/16 18:56:33;;;;;;;13.70;12.50;;;;;;;19.96;57.97;100203.36;221767;1232;75560;-74
2023/06/16 19:01:27;;;;;;;13.90;12.80;;;;;;;19.88;58.60;100206.06;221860;1236;73537;-75
2023/06/16 19:06:21;;;;;;;13.50;12.20;;;;;;;19.79;58.65;100204.39;221824;1232;61251;-75
2023/06/16 19:11:14;;;;;;;14.60;13.20;;;;;;;19.71;58.88;100213.56;221807;1235;61309;-74
2023/06/16 19:16:05;;;;;;;15.00;13.60;;;;;;;19.63;59.02;100216.08;221724;1237;61332;-75
2023/06/16 19:20:58;;;;;;;15.60;14.10;;;;;;;19.54;59.27;100215.09;221807;1232;61239;-75
2023/06/16 19:25:50;;;;;;;15.30;14.00;;;;;;;19.46;59.51;100216.90;221786;1237;61351;-74
2023/06/16 19:30:41;;;;;;;14.90;13.60;;;;;;;19.40;60.16;100219.16;221792;1232;75617;-74
2023/06/16 19:35:33;;;;;;;15.60;14.30;;;;;;;19.33;60.26;100223.05;221738;1232;61669;-75
2023/06/16 19:40:24;;;;;;;15.70;14.40;;;;;;;19.22;60.38;100220.52;221864;1236;61453;-75
2023/06/16 19:45:16;;;;;;;15.60;14.40;;;;;;;19.17;60.85;100224.88;221766;1232;73456;-74
2023/06/16 19:50:08;;;;;;;15.80;14.40;;;;;;;19.14;61.14;100222.16;221724;1232;61248;-75
2023/06/16 19:55:00;;;;;;;15.40;14.00;;;;;;;19.08;61.40;100218.98;221684;1237;61255;-75
2023/06/16 19:59:52;;;;;;;16.90;15.50;;;;;;;19.04;61.67;100220.11;221750;1235;61218;-75
2023/06/16 20:04:44;;;;;;;16.10;14.80;;;;;;;19.00;62.13;100210.74;221780;1235;61348;-74
2023/06/16 20:09:36;;;;;;;16.70;15.20;;;;;;;18.95;62.36;100207.54;221796;1232;61255;-74
2023/06/16 20:14:28;;;;;;;16.40;14.90;;;;;;;18.87;62.51;100208.79;221780;1232;61370;-74
2023/06/16 20:19:20;;;;;;;16.60;15.20;;;;;;;18.82;62.88;100208.38;221763;1232;61296;-74
2023/06/16 20:24:12;;;;;;;16.70;15.30;;;;;;;18.74;62.85;100206.45;221794;1232;61223;-74
2023/06/16 20:29:04;;;;;;;19.00;17.20;;;;;;;18.71;63.36;100210.73;221715;1232;61322;-74
2023/06/16 20:33:55;;;;;;;19.30;16.20;;;;;;;18.64;63.63;100215.64;221813;1236;61498;-75
2023/06/16 20:38:47;;;;;;;17.40;15.40;;;;;;;18.57;63.87;100215.27;221736;1236;73199;-75
2023/06/16 20:43:38;;;;;;;17.90;16.30;;;;;;;18.51;64.53;100209.11;221860;1232;61245;-75
2023/06/16 20:48:31;;;;;;;19.50;17.80;;;;;;;18.45;64.79;100208.39;221726;1232;61310;-74
2023/06/16 20:53:22;;;;;;;18.00;16.40;;;;;;;18.39;65.21;100203.09;221896;1232;61342;-75
2023/06/16 20:58:16;;;;;;;18.90;17.20;;;;;;;18.31;65.34;100194.50;221833;1232;61332;-75
2023/06/16 21:03:09;;;;;;;18.60;17.00;;;;;;;18.24;65.72;100190.42;221839;1235;62003;-75
2023/06/16 21:08:02;;;;;;;20.60;18.80;;;;;;;18.20;65.96;100191.77;221803;1235;61757;-75
2023/06/16 21:12:54;;;;;;;21.60;19.80;;;;;;;18.11;66.40;100193.90;221830;1232;61239;-75
2023/06/16 21:17:47;;;;;;;21.40;19.60;;;;;;;18.06;66.80;100201.55;221799;1232;61345;-74
2023/06/16 21:22:40;;;;;;;21.70;19.70;;;;;;;17.99;67.11;100201.35;221829;1231;61250;-75
2023/06/16 21:27:32;;;;;;;22.90;20.80;;;;;;;17.92;67.48;100200.27;221809;1232;61422;-74
2023/06/16 21:32:24;;;;;;;24.90;22.80;;;;;;;17.86;67.87;100202.33;221770;1235;61246;-74
2023/06/16 21:37:23;;;;;;;24.40;22.30;;;;;;;17.80;68.21;100201.89;221846;1232;72176;-74
2023/06/16 21:42:14;;;;;;;22.80;20.80;;;;;;;17.76;68.58;100203.55;221813;1235;61292;-74
2023/06/16 21:47:06;;;;;;;25.00;22.80;;;;;;;17.73;68.93;100198.70;221842;1232;61235;-74
2023/06/16 21:51:58;;;;;;;24.60;22.50;;;;;;;17.67;69.27;100199.53;221813;1237;61283;-74
2023/06/16 21:56:49;;;;;;;25.10;22.90;;;;;;;17.53;69.64;100195.80;221804;1232;66761;-75
2023/06/16 22:01:41;;;;;;;24.80;22.70;;;;;;;17.49;70.10;100193.58;221794;1232;61318;-74
2023/06/16 22:06:33;;;;;;;24.40;22.30;;;;;;;17.48;70.28;100203.07;221820;1232;61274;-75
2023/06/16 22:11:24;;;;;;;27.30;24.80;;;;;;;17.47;70.57;100201.16;221848;1235;61202;-74